25  °C
Temperature
-2  °C
  Dewpoint
   Humidity
Temp | Dewpoint | Humidity
11  km/h
Wind Speed
7  mph
Wind Speed
6  kts
Wind Speed
250°
West South
West

Wind Speed
Clear
Conditions
Pressure 1007.92 (hPa) - 29.76 (in)
Visibility 6.2 (mi) - 10.0 (km)

Current Conditions
YWLM
Location 6km (3.2mi)
Metar :YWLM 151000Z AUTO 25006KT 9999 // NCD 25/M02 Q1008
Fri 15th November 21:00 pm

Airport
  Metar Aviation API Data Provided by https://www.checkwx.com/ CSS/SVG/PHP scripts by weather34.com © 2015-2019